NCAR-RAP Real-Time Weather Data

Output produced by METARs form (08 May 2021  17:04 UTC)
found at http://weather.rap.ucar.edu/surface/
 
KRNM 081653Z 00000KT 10SM FEW025 17/08 A2996 RMK AO2 SLP139 T01720078
KRNM 081630Z 06003KT 10SM SCT020 17/08 A2996 RMK AO2 T01670083
KRNM 081553Z VRB03KT 10SM BKN019 14/08 A2997 RMK AO2 SLP142 T01440083
KRNM 081453Z 19006KT 10SM OVC015 14/09 A2996 RMK AO2 SLP138 T01390089 53013
KRNM 081353Z AUTO 00000KT 10SM OVC015 13/09 A2995 RMK AO2 SLP132 T01330089
KRNM 081329Z AUTO 00000KT 10SM OVC015 13/09 A2993 RMK AO2 T01280089
KRNM 081253Z AUTO 17004KT 10SM OVC014 13/09 A2992 RMK AO2 SLP122 T01280089
KRNM 081221Z AUTO 23003KT 10SM OVC014 13/09 A2992 RMK AO2 T01280094
KRNM 081153Z AUTO 19004KT 10SM OVC015 13/09 A2992 RMK AO2 SLP120 T01280094 10133 20117 56008
KRNM 081053Z AUTO 18004KT 10SM OVC015 13/10 A2992 RMK AO2 SLP120 T01280100
KRNM 081038Z AUTO 00000KT 10SM OVC015 13/09 A2992 RMK AO2 T01330089
KRNM 080953Z AUTO 17004KT 10SM OVC013 13/10 A2993 RMK AO2 SLP122 T01280100
KRNM 080853Z AUTO 23003KT 10SM OVC012 13/10 A2994 RMK AO2 SLP128 T01330100 58006
KRNM 080816Z AUTO 00000KT 10SM OVC011 13/11 A2995 RMK AO2 T01330106
KRNM 080753Z AUTO 22004KT 10SM OVC009 13/11 A2996 RMK AO2 SLP134 T01330106 402440100
KRNM 080738Z AUTO 23003KT 10SM OVC009 13/11 A2996 RMK AO2 T01280106
KRNM 080653Z AUTO 00000KT 10SM OVC008 13/11 A2995 RMK AO2 SLP131 T01280106
KRNM 080645Z AUTO 00000KT 10SM OVC008 13/11 A2996 RMK AO2 T01280106
KRNM 080624Z AUTO 00000KT 10SM OVC009 13/11 A2996 RMK AO2 T01280106
KRNM 080553Z AUTO 26003KT 10SM OVC010 12/10 A2996 RMK AO2 SLP138 T01170100 10222 20100 51004
KRNM 080528Z AUTO 00000KT 10SM BKN013 11/09 A2996 RMK AO2 T01060089
KRNM 080453Z AUTO 31003KT 10SM CLR 11/09 A2996 RMK AO2 SLP138 T01060089